Time;durP1;ratioP1;P1;durP2;ratioP2;P2;SDS_P1;SDS_P2;PMS_P1;PMS_P2;Temp;Humidity;BMP_temperature;BMP_pressure;BME280_temperature;BME280_humidity;BME280_pressure;Samples;Min_cycle;Max_cycle;Signal;HPM_P1;HPM_P2
2022/10/09 00:01:19;;;;;;;12.25;4.63;;;9.30;99.90;;;;;;5012332;28;20397;-47
2022/10/09 00:03:45;;;;;;;;;;;9.30;99.90;;;;;;5012342;28;20425;-45
2022/10/09 00:06:17;;;;;;;7.10;4.80;;;9.20;99.90;;;;;;5010885;28;19905;-45
2022/10/09 00:08:43;;;;;;;6.18;4.85;;;9.20;99.90;;;;;;5011927;28;20387;-48
2022/10/09 00:11:13;;;;;;;11.77;5.18;;;9.20;99.90;;;;;;5012014;28;20033;-46
2022/10/09 00:13:39;;;;;;;7.13;5.15;;;9.10;99.90;;;;;;5011993;28;20629;-46
2022/10/09 00:16:07;;;;;;;13.10;6.82;;;9.00;99.90;;;;;;5012140;28;20125;-44
2022/10/09 00:18:32;;;;;;;12.50;5.70;;;8.90;99.90;;;;;;5012033;28;20018;-45
2022/10/09 00:20:58;;;;;;;10.68;5.97;;;8.90;99.90;;;;;;5011948;28;20022;-45
2022/10/09 00:23:24;;;;;;;7.80;4.80;;;9.00;99.90;;;;;;5011507;28;20390;-47
2022/10/09 00:25:55;;;;;;;15.70;5.13;;;8.90;99.90;;;;;;5011696;28;20033;-44
2022/10/09 00:28:22;;;;;;;14.50;5.95;;;8.80;99.90;;;;;;5011002;28;20034;-46
2022/10/09 00:30:48;;;;;;;10.27;5.63;;;8.70;99.90;;;;;;5010540;28;20065;-49
2022/10/09 00:33:13;;;;;;;9.13;5.20;;;8.70;99.90;;;;;;5010919;28;20454;-46
2022/10/09 00:35:40;;;;;;;12.95;5.75;;;8.70;99.90;;;;;;5011733;28;20390;-47
2022/10/09 00:38:06;;;;;;;6.25;4.15;;;8.70;99.90;;;;;;5011307;28;20092;-44
2022/10/09 00:40:33;;;;;;;9.65;4.57;;;8.70;99.90;;;;;;5011716;28;20072;-45
2022/10/09 00:42:59;;;;;;;9.82;4.60;;;8.70;99.90;;;;;;5011334;28;20058;-44
2022/10/09 00:45:25;;;;;;;11.68;4.07;;;8.70;99.90;;;;;;5010318;28;20117;-49
2022/10/09 00:48:03;;;;;;;5.95;3.78;;;8.70;99.90;;;;;;5011903;28;20048;-46
2022/10/09 00:50:41;;;;;;;11.00;3.90;;;8.70;99.90;;;;;;5011550;28;20022;-46
2022/10/09 00:53:09;;;;;;;11.07;4.28;;;8.70;99.90;;;;;;5011317;28;20038;-47
2022/10/09 00:55:36;;;;;;;6.35;4.40;;;8.80;99.90;;;;;;5011530;28;20037;-46
2022/10/09 00:58:02;;;;;;;9.48;4.30;;;8.70;99.90;;;;;;5011442;28;20045;-47
2022/10/09 01:00:28;;;;;;;6.20;4.78;;;8.70;99.90;;;;;;5011345;28;20084;-49
2022/10/09 01:02:54;;;;;;;10.80;4.10;;;8.70;99.90;;;;;;5011030;28;20026;-46
2022/10/09 01:05:26;;;;;;;8.07;4.30;;;8.60;99.90;;;;;;5011436;28;20367;-45
2022/10/09 01:08:05;;;;;;;10.55;4.15;;;8.60;99.90;;;;;;5011484;28;20397;-45
2022/10/09 01:11:02;;;;;;;8.35;3.75;;;8.50;99.90;;;;;;5010192;28;20030;-46
2022/10/09 01:13:35;;;;;;;7.22;4.55;;;8.50;99.90;;;;;;5011037;28;20450;-46
2022/10/09 01:16:04;;;;;;;13.80;4.32;;;8.50;99.90;;;;;;5011306;28;20108;-45
2022/10/09 01:18:51;;;;;;;6.80;4.60;;;8.40;99.90;;;;;;5011158;28;20022;-45
2022/10/09 01:21:26;;;;;;;12.27;4.70;;;8.50;99.90;;;;;;5011365;28;20101;-50
2022/10/09 01:24:04;;;;;;;10.07;4.75;;;8.50;99.90;;;;;;5010901;28;20053;-46
2022/10/09 01:26:48;;;;;;;6.32;4.55;;;8.40;99.90;;;;;;5009892;28;20042;-47
2022/10/09 01:29:15;;;;;;;9.55;5.03;;;8.40;99.90;;;;;;5010496;28;20037;-47
2022/10/09 01:31:44;;;;;;;10.73;4.13;;;8.40;99.90;;;;;;5011093;28;20036;-45
2022/10/09 01:34:12;;;;;;;6.43;3.92;;;8.30;99.90;;;;;;5010840;28;20026;-49
2022/10/09 01:36:39;;;;;;;10.80;4.85;;;8.20;99.90;;;;;;5011016;28;20440;-47
2022/10/09 01:39:07;;;;;;;8.50;4.70;;;8.20;99.90;;;;;;5011130;28;20049;-45
2022/10/09 01:41:33;;;;;;;8.45;4.78;;;8.10;99.90;;;;;;5011403;28;20072;-46
2022/10/09 01:43:59;;;;;;;8.20;5.20;;;8.00;99.90;;;;;;5011042;28;20018;-44
2022/10/09 01:46:29;;;;;;;9.25;4.40;;;8.00;99.90;;;;;;5014594;28;20041;-47
2022/10/09 01:49:32;;;;;;;8.38;4.75;;;8.00;99.90;;;;;;5014633;28;20033;-44
2022/10/09 01:52:09;;;;;;;11.27;5.80;;;7.90;99.90;;;;;;5035232;23;20457;-49
2022/10/09 01:55:01;;;;;;;128.02;65.95;;;7.80;99.90;;;;;;5014612;28;20026;-51
2022/10/09 01:57:36;;;;;;;9.27;6.60;;;7.80;99.90;;;;;;5015094;28;20109;-52
2022/10/09 02:00:07;;;;;;;8.93;4.60;;;7.80;99.90;;;;;;5014383;28;20028;-48
2022/10/09 02:02:34;;;;;;;10.27;4.93;;;7.80;99.90;;;;;;5014013;28;20269;-47
2022/10/09 02:05:00;;;;;;;11.10;4.93;;;7.90;99.90;;;;;;5014490;28;20034;-49
2022/10/09 02:07:27;;;;;;;7.78;4.70;;;7.80;99.90;;;;;;5014452;28;20108;-49
2022/10/09 02:09:54;;;;;;;6.85;4.57;;;7.80;99.90;;;;;;5014370;28;20511;-49
2022/10/09 02:12:21;;;;;;;12.15;5.10;;;7.70;99.90;;;;;;5013993;28;20489;-54
2022/10/09 02:14:47;;;;;;;11.85;4.95;;;7.60;99.90;;;;;;5014146;28;20069;-50
2022/10/09 02:17:20;;;;;;;9.70;4.85;;;7.60;99.90;;;;;;5014271;28;20034;-50
2022/10/09 02:19:49;;;;;;;7.40;5.20;;;7.70;99.90;;;;;;5014290;28;20069;-50
2022/10/09 02:22:18;;;;;;;8.80;5.72;;;7.60;99.90;;;;;;5013816;28;20038;-48
2022/10/09 02:24:45;;;;;;;9.57;5.60;;;7.70;99.90;;;;;;5012849;28;20029;-49
2022/10/09 02:27:12;;;;;;;12.38;5.88;;;7.70;99.90;;;;;;5014636;28;20038;-52
2022/10/09 02:29:40;;;;;;;11.60;5.30;;;7.60;99.90;;;;;;5012679;28;20049;-47
2022/10/09 02:32:05;;;;;;;8.65;6.30;;;7.60;99.90;;;;;;5013652;28;20026;-52
2022/10/09 02:34:31;;;;;;;9.23;6.05;;;7.60;99.90;;;;;;5013823;28;20428;-49
2022/10/09 02:36:57;;;;;;;10.23;5.80;;;7.50;99.90;;;;;;5012517;28;20029;-50
2022/10/09 02:39:22;;;;;;;10.38;6.00;;;7.40;99.90;;;;;;5013707;28;20532;-51
2022/10/09 02:41:48;;;;;;;10.88;5.85;;;7.40;99.90;;;;;;5013543;28;20022;-47
2022/10/09 02:44:13;;;;;;;8.88;5.97;;;7.20;99.90;;;;;;5013382;28;20022;-47
2022/10/09 02:46:39;;;;;;;10.63;5.85;;;7.20;99.90;;;;;;5013704;28;20109;-50
2022/10/09 02:49:05;;;;;;;12.55;6.30;;;7.20;99.90;;;;;;5013457;28;20061;-43
2022/10/09 02:51:31;;;;;;;10.45;6.78;;;7.10;99.90;;;;;;5013535;28;20033;-48
2022/10/09 02:53:58;;;;;;;17.85;6.63;;;7.00;99.90;;;;;;5013664;28;20026;-49
2022/10/09 02:56:24;;;;;;;8.75;6.57;;;7.00;99.90;;;;;;5012632;28;20026;-49
2022/10/09 02:58:50;;;;;;;18.17;7.20;;;7.00;99.90;;;;;;5013192;28;20521;-51
2022/10/09 03:01:16;;;;;;;19.85;7.45;;;7.00;99.90;;;;;;5013381;28;20024;-51
2022/10/09 03:03:41;;;;;;;9.02;6.75;;;7.00;99.90;;;;;;5012922;28;20022;-49
2022/10/09 03:06:13;;;;;;;12.55;7.63;;;7.00;99.90;;;;;;5013276;28;20036;-49
2022/10/09 03:08:40;;;;;;;12.77;7.35;;;7.10;99.90;;;;;;5013143;28;20034;-51
2022/10/09 03:11:07;;;;;;;14.93;7.70;;;7.10;99.90;;;;;;5013175;28;20041;-54
2022/10/09 03:13:32;;;;;;;18.50;7.75;;;7.00;99.90;;;;;;5012802;28;20026;-53
2022/10/09 03:16:03;;;;;;;9.45;7.30;;;7.00;99.90;;;;;;5013102;28;20030;-48
2022/10/09 03:18:29;;;;;;;13.13;8.25;;;6.90;99.90;;;;;;5012936;28;20057;-53
2022/10/09 03:20:54;;;;;;;10.43;6.95;;;7.00;99.90;;;;;;5012931;28;20478;-53
2022/10/09 03:23:20;;;;;;;12.32;7.38;;;6.90;99.90;;;;;;5012644;28;20040;-48
2022/10/09 03:25:54;;;;;;;14.90;7.20;;;6.90;99.90;;;;;;5012817;28;20018;-44
2022/10/09 03:28:20;;;;;;;16.17;7.85;;;6.80;99.90;;;;;;5012610;28;20042;-48
2022/10/09 03:30:45;;;;;;;11.95;8.50;;;6.80;99.90;;;;;;5012790;28;20458;-49
2022/10/09 03:33:11;;;;;;;14.75;8.13;;;6.80;99.90;;;;;;5012347;28;20030;-53
2022/10/09 03:35:36;;;;;;;14.57;8.65;;;6.80;99.90;;;;;;5012658;28;20100;-45
2022/10/09 03:38:02;;;;;;;18.08;8.65;;;6.70;99.90;;;;;;5011149;28;20120;-55
2022/10/09 03:40:27;;;;;;;17.00;9.27;;;6.70;99.90;;;;;;5012532;28;20363;-50
2022/10/09 03:42:53;;;;;;;16.52;8.30;;;6.70;99.90;;;;;;5012444;28;20022;-49
2022/10/09 03:45:19;;;;;;;11.52;7.45;;;6.70;99.90;;;;;;5012501;28;20022;-48
2022/10/09 03:47:44;;;;;;;20.98;8.60;;;6.60;99.90;;;;;;5012600;28;20034;-44
2022/10/09 03:50:10;;;;;;;11.63;8.52;;;6.50;99.90;;;;;;5012294;28;20030;-47
2022/10/09 03:52:35;;;;;;;24.95;8.75;;;6.50;99.90;;;;;;5011907;28;20112;-51
2022/10/09 03:55:01;;;;;;;11.63;8.20;;;6.40;99.90;;;;;;5012309;28;20541;-49
2022/10/09 03:57:26;;;;;;;16.88;8.88;;;6.40;99.90;;;;;;5012412;28;20030;-51
2022/10/09 03:59:52;;;;;;;10.70;8.07;;;6.40;99.90;;;;;;5012169;28;20397;-52
2022/10/09 04:02:17;;;;;;;13.52;9.13;;;6.30;99.90;;;;;;5011942;28;20026;-48
2022/10/09 04:04:43;;;;;;;14.90;8.55;;;6.30;99.90;;;;;;5012169;28;20022;-49
2022/10/09 04:07:08;;;;;;;11.60;8.25;;;6.20;99.90;;;;;;5011981;28;20038;-48
2022/10/09 04:09:34;;;;;;;13.48;9.68;;;6.20;99.90;;;;;;5012040;28;20453;-50
2022/10/09 04:11:59;;;;;;;11.32;7.85;;;6.20;99.90;;;;;;5011808;28;20092;-48
2022/10/09 04:14:25;;;;;;;19.00;9.70;;;6.10;99.90;;;;;;5011997;28;20030;-48
2022/10/09 04:16:50;;;;;;;13.57;8.38;;;6.10;99.90;;;;;;5011977;28;20117;-43
2022/10/09 04:19:16;;;;;;;15.05;8.65;;;6.10;99.90;;;;;;5011910;28;20029;-48
2022/10/09 04:21:42;;;;;;;19.52;8.75;;;6.00;99.90;;;;;;5011898;28;20021;-51
2022/10/09 04:24:07;;;;;;;16.27;10.15;;;6.10;99.90;;;;;;5011667;28;20026;-47
2022/10/09 04:26:33;;;;;;;17.08;9.13;;;6.10;99.90;;;;;;5011792;28;20030;-48
2022/10/09 04:28:59;;;;;;;20.42;9.63;;;6.20;99.90;;;;;;5011383;28;20504;-52
2022/10/09 04:31:25;;;;;;;11.23;8.70;;;6.20;99.90;;;;;;5010475;28;20022;-49
2022/10/09 04:33:53;;;;;;;14.77;9.35;;;6.20;99.90;;;;;;5011404;28;20025;-50
2022/10/09 04:36:18;;;;;;;18.33;9.55;;;6.30;99.90;;;;;;5011810;28;20164;-51
2022/10/09 04:38:44;;;;;;;12.13;10.60;;;6.30;99.90;;;;;;5010452;28;20530;-47
2022/10/09 04:41:09;;;;;;;18.33;10.63;;;6.30;99.90;;;;;;5011654;28;20160;-50
2022/10/09 04:43:35;;;;;;;19.88;10.38;;;6.40;99.90;;;;;;5011343;28;20148;-51
2022/10/09 04:46:10;;;;;;;15.73;9.73;;;6.50;99.90;;;;;;5011618;28;20029;-43
2022/10/09 04:48:44;;;;;;;13.68;11.10;;;6.50;99.90;;;;;;5011518;28;20038;-48
2022/10/09 04:51:10;;;;;;;12.70;9.98;;;6.40;99.90;;;;;;5011662;28;20401;-49
2022/10/09 04:53:37;;;;;;;14.82;10.77;;;6.40;99.90;;;;;;5011180;28;20026;-45
2022/10/09 04:56:05;;;;;;;21.60;11.50;;;6.40;99.90;;;;;;5010117;28;20022;-52
2022/10/09 04:58:31;;;;;;;17.70;10.38;;;6.30;99.90;;;;;;5011460;28;20496;-52
2022/10/09 05:00:57;;;;;;;14.38;10.63;;;6.30;99.90;;;;;;5011687;28;20041;-47
2022/10/09 05:03:23;;;;;;;14.52;11.13;;;6.30;99.90;;;;;;5011193;28;20025;-48
2022/10/09 05:05:48;;;;;;;14.60;10.52;;;6.30;99.90;;;;;;5011493;28;20462;-47
2022/10/09 05:08:14;;;;;;;16.58;11.13;;;6.30;99.90;;;;;;5010211;28;20026;-47
2022/10/09 05:10:39;;;;;;;12.90;11.23;;;6.30;99.90;;;;;;5011400;28;20049;-47
2022/10/09 05:13:05;;;;;;;15.80;11.52;;;6.20;99.90;;;;;;5011313;28;20502;-49
2022/10/09 05:15:35;;;;;;;17.00;11.35;;;6.20;99.90;;;;;;5011314;28;20501;-50
2022/10/09 05:18:00;;;;;;;25.55;11.98;;;6.20;99.90;;;;;;5011430;28;20429;-49
2022/10/09 05:20:26;;;;;;;17.38;11.70;;;6.20;99.90;;;;;;5013619;28;20371;-49
2022/10/09 05:22:51;;;;;;;16.45;10.55;;;6.20;99.90;;;;;;5014991;28;20021;-45
2022/10/09 05:25:17;;;;;;;18.77;10.63;;;6.20;99.90;;;;;;5015035;28;20022;-52
2022/10/09 05:27:42;;;;;;;18.95;11.73;;;6.20;99.90;;;;;;5014610;28;20026;-50
2022/10/09 05:30:09;;;;;;;16.35;10.23;;;6.20;99.90;;;;;;5015099;28;20072;-49
2022/10/09 05:32:34;;;;;;;16.00;10.40;;;6.20;99.90;;;;;;5014629;28;20133;-49
2022/10/09 05:35:00;;;;;;;19.13;9.60;;;6.20;99.90;;;;;;5015236;28;20125;-47
2022/10/09 05:37:25;;;;;;;18.88;10.18;;;6.20;99.90;;;;;;5014993;28;20022;-52
2022/10/09 05:39:51;;;;;;;16.40;10.25;;;6.10;99.90;;;;;;5013804;28;20033;-47
2022/10/09 05:42:16;;;;;;;18.10;9.48;;;6.10;99.90;;;;;;5014467;28;20026;-48
2022/10/09 05:44:42;;;;;;;18.92;10.18;;;6.20;99.90;;;;;;5015081;28;20022;-50
2022/10/09 05:47:07;;;;;;;14.93;9.98;;;6.20;99.90;;;;;;5015071;28;20041;-52
2022/10/09 05:49:33;;;;;;;12.52;8.68;;;6.20;99.90;;;;;;5014932;28;20026;-49
2022/10/09 05:51:58;;;;;;;14.50;8.75;;;6.20;99.90;;;;;;5014079;28;20489;-49
2022/10/09 05:54:24;;;;;;;16.77;8.68;;;6.20;99.90;;;;;;5014672;28;20088;-48
2022/10/09 05:56:49;;;;;;;15.30;8.25;;;6.20;99.90;;;;;;5014453;28;20026;-50
2022/10/09 05:59:20;;;;;;;11.30;9.05;;;6.20;99.90;;;;;;5014521;28;20032;-53
2022/10/09 06:01:48;;;;;;;11.07;8.65;;;6.20;99.90;;;;;;5014478;28;20026;-46
2022/10/09 06:04:17;;;;;;;14.02;8.05;;;6.20;99.90;;;;;;5014354;28;20022;-52
2022/10/09 06:06:43;;;;;;;11.85;8.55;;;6.30;99.90;;;;;;5014370;28;20030;-48
2022/10/09 06:09:09;;;;;;;9.80;8.05;;;6.30;99.90;;;;;;5012993;28;20022;-48
2022/10/09 06:11:37;;;;;;;10.23;7.97;;;6.40;99.90;;;;;;5014109;28;20022;-51
2022/10/09 06:14:06;;;;;;;11.77;8.65;;;6.40;99.90;;;;;;5012971;28;20088;-49
2022/10/09 06:16:34;;;;;;;12.85;8.18;;;6.40;99.90;;;;;;5014015;28;20067;-54
2022/10/09 06:19:01;;;;;;;11.02;8.00;;;6.40;99.90;;;;;;5014409;28;20490;-49
2022/10/09 06:21:27;;;;;;;14.10;7.47;;;6.40;99.90;;;;;;5014165;28;20026;-49
2022/10/09 06:23:55;;;;;;;10.88;7.70;;;6.40;99.90;;;;;;5013600;28;20054;-49
2022/10/09 06:26:22;;;;;;;14.07;8.00;;;6.50;99.90;;;;;;5013959;28;20037;-48
2022/10/09 06:28:49;;;;;;;12.20;6.97;;;6.60;99.90;;;;;;5012739;28;20037;-52
2022/10/09 06:31:17;;;;;;;11.55;6.53;;;6.70;99.90;;;;;;5012739;28;20030;-48
2022/10/09 06:33:44;;;;;;;8.70;6.82;;;6.70;99.90;;;;;;5013700;28;20037;-49
2022/10/09 06:36:15;;;;;;;7.63;6.53;;;6.80;99.90;;;;;;5013708;28;20044;-48
2022/10/09 06:38:41;;;;;;;13.38;7.28;;;6.90;99.90;;;;;;5013807;28;20056;-46
2022/10/09 06:41:15;;;;;;;10.05;6.55;;;6.90;99.90;;;;;;5013728;28;20018;-50
2022/10/09 06:43:41;;;;;;;11.82;6.95;;;7.00;99.90;;;;;;5013445;28;20034;-47
2022/10/09 06:46:10;;;;;;;19.20;6.43;;;7.20;99.90;;;;;;5013897;28;20305;-51
2022/10/09 06:48:37;;;;;;;5.95;5.35;;;7.70;99.90;;;;;;5013638;28;20018;-47
2022/10/09 06:51:05;;;;;;;11.30;5.15;;;8.30;99.90;;;;;;5012385;28;20026;-47
2022/10/09 06:53:42;;;;;;;8.25;4.35;;;8.80;99.90;;;;;;5013284;28;20026;-44
2022/10/09 06:56:09;;;;;;;5.05;3.92;;;9.20;99.90;;;;;;5012210;28;20022;-50
2022/10/09 06:58:35;;;;;;;12.40;3.83;;;9.60;99.90;;;;;;5013379;28;20021;-47
2022/10/09 07:01:09;;;;;;;7.38;4.50;;;9.90;99.90;;;;;;5013419;28;20052;-48
2022/10/09 07:03:37;;;;;;;8.88;4.00;;;10.20;99.90;;;;;;5013037;28;20049;-48
2022/10/09 07:06:07;;;;;;;13.45;5.10;;;10.50;99.90;;;;;;5013273;28;20018;-50
2022/10/09 07:08:33;;;;;;;7.53;3.47;;;10.70;99.90;;;;;;5013201;28;20054;-48
2022/10/09 07:10:59;;;;;;;5.20;3.78;;;10.90;99.90;;;;;;5013237;28;20443;-50
2022/10/09 07:13:24;;;;;;;4.43;3.20;;;11.20;99.90;;;;;;5012614;28;20491;-49
2022/10/09 07:15:50;;;;;;;7.72;3.80;;;11.40;99.90;;;;;;5013091;28;20033;-46
2022/10/09 07:18:15;;;;;;;3.72;2.90;;;11.60;99.90;;;;;;5012765;28;20034;-48
2022/10/09 07:20:41;;;;;;;6.32;3.85;;;11.70;99.90;;;;;;5011634;28;20655;-52
2022/10/09 07:23:06;;;;;;;9.90;3.60;;;11.20;99.90;;;;;;5012556;28;20052;-49
2022/10/09 07:25:37;;;;;;;4.10;3.65;;;10.70;99.90;;;;;;5012946;28;20026;-46
2022/10/09 07:28:02;;;;;;;8.18;4.40;;;10.30;99.90;;;;;;5012755;28;20034;-47
2022/10/09 07:30:28;;;;;;;5.15;4.05;;;10.20;99.90;;;;;;5011391;28;20030;-47
2022/10/09 07:32:53;;;;;;;8.45;3.97;;;9.90;99.90;;;;;;5012593;28;20025;-49
2022/10/09 07:35:19;;;;;;;6.10;4.25;;;9.80;99.90;;;;;;5012938;28;20482;-47
2022/10/09 07:37:44;;;;;;;7.72;5.50;;;9.60;99.90;;;;;;5012801;28;20080;-46
2022/10/09 07:40:10;;;;;;;9.68;4.22;;;9.50;99.90;;;;;;5012765;28;20029;-51
2022/10/09 07:42:35;;;;;;;4.53;4.07;;;9.30;99.90;;;;;;5012108;28;20109;-53
2022/10/09 07:45:00;;;;;;;5.35;4.55;;;9.30;99.90;;;;;;5011341;28;20116;-52
2022/10/09 07:47:26;;;;;;;6.30;5.07;;;9.30;99.90;;;;;;5012530;28;20030;-49
2022/10/09 07:49:51;;;;;;;7.25;4.43;;;9.30;99.90;;;;;;5012960;28;20029;-50
2022/10/09 07:54:45;;;;;;;6.35;4.55;;;9.40;99.90;;;;;;4990018;28;20061;-44
2022/10/09 07:57:11;;;;;;;5.88;4.30;;;9.50;99.90;;;;;;4993115;28;20026;-49
2022/10/09 07:59:36;;;;;;;15.70;5.40;;;9.50;99.90;;;;;;4993045;28;20018;-47
2022/10/09 08:02:02;;;;;;;6.68;4.30;;;9.60;99.90;;;;;;4992745;28;20026;-45
2022/10/09 08:04:27;;;;;;;11.20;5.32;;;9.60;99.90;;;;;;4993056;28;20036;-49
2022/10/09 08:06:53;;;;;;;9.82;5.00;;;9.60;99.90;;;;;;4992912;28;20033;-51
2022/10/09 08:09:18;;;;;;;8.98;4.45;;;9.70;99.90;;;;;;4992757;28;20025;-47
2022/10/09 08:11:44;;;;;;;9.38;4.68;;;9.70;99.90;;;;;;4993106;28;20050;-48
2022/10/09 08:14:12;;;;;;;12.85;4.85;;;9.80;99.90;;;;;;4992351;28;20106;-50
2022/10/09 08:16:37;;;;;;;8.15;5.00;;;9.90;99.90;;;;;;4992596;28;20490;-48
2022/10/09 08:19:03;;;;;;;8.18;4.65;;;9.90;99.90;;;;;;4992373;28;20022;-45
2022/10/09 08:21:29;;;;;;;8.90;4.72;;;9.90;99.90;;;;;;4992721;28;20046;-44
2022/10/09 08:23:56;;;;;;;7.63;4.82;;;10.00;99.90;;;;;;4992283;28;20548;-46
2022/10/09 08:26:23;;;;;;;9.55;4.50;;;10.00;99.90;;;;;;4992492;28;20438;-50
2022/10/09 08:28:54;;;;;;;8.68;4.75;;;10.00;99.90;;;;;;4992705;28;20026;-51
2022/10/09 08:31:21;;;;;;;8.23;4.60;;;10.10;99.90;;;;;;4992561;28;20410;-43
2022/10/09 08:33:50;;;;;;;8.15;4.78;;;10.20;99.90;;;;;;4992289;28;20409;-49
2022/10/09 08:36:15;;;;;;;10.98;5.05;;;10.30;99.90;;;;;;4992675;28;20449;-44
2022/10/09 08:38:42;;;;;;;7.13;5.35;;;10.40;99.90;;;;;;4992106;28;20034;-48
2022/10/09 08:41:27;;;;;;;9.80;4.70;;;10.40;99.90;;;;;;4992506;28;20026;-45
2022/10/09 08:44:15;;;;;;;9.02;4.40;;;10.50;99.90;;;;;;4991881;28;20045;-48
2022/10/09 08:46:53;;;;;;;9.38;4.75;;;10.60;99.90;;;;;;4990508;28;20026;-48
2022/10/09 08:49:25;;;;;;;9.38;5.85;;;10.70;99.90;;;;;;4991614;28;20100;-44
2022/10/09 08:51:53;;;;;;;7.70;4.28;;;10.80;99.90;;;;;;4991977;28;20232;-47
2022/10/09 08:54:30;;;;;;;8.68;4.50;;;10.80;99.90;;;;;;4991033;28;20068;-44
2022/10/09 08:56:58;;;;;;;5.78;3.80;;;10.80;99.90;;;;;;4992084;28;20030;-49
2022/10/09 08:59:24;;;;;;;11.32;5.00;;;11.00;99.90;;;;;;4991944;28;20450;-46
2022/10/09 09:02:12;;;;;;;7.25;3.90;;;11.20;99.90;;;;;;4991929;28;20102;-42
2022/10/09 09:05:00;;;;;;;7.93;3.90;;;11.40;99.90;;;;;;4981678;28;20514;-46
2022/10/09 09:07:50;;;;;;;9.05;3.97;;;11.60;99.90;;;;;;4992222;28;20026;-46
2022/10/09 09:10:45;;;;;;;7.53;2.90;;;12.80;99.90;;;;;;4992032;28;20076;-45
2022/10/09 09:13:46;;;;;;;6.15;3.50;;;14.10;99.90;;;;;;4990506;28;20533;-46
2022/10/09 09:16:35;;;;;;;4.65;2.85;;;15.30;99.90;;;;;;4991957;28;20034;-44
2022/10/09 09:19:12;;;;;;;6.90;2.78;;;15.80;99.90;;;;;;4991137;28;20034;-46
2022/10/09 09:21:52;;;;;;;5.43;2.92;;;16.30;99.90;;;;;;4992132;28;20022;-43
2022/10/09 09:24:30;;;;;;;4.85;3.08;;;16.60;99.90;;;;;;4991740;28;20066;-43
2022/10/09 09:27:02;;;;;;;7.47;3.20;;;16.50;99.90;;;;;;4992378;28;20030;-47
2022/10/09 09:29:36;;;;;;;4.38;2.88;;;16.80;99.90;;;;;;4991975;28;20050;-43
2022/10/09 09:32:02;;;;;;;5.75;2.70;;;16.90;99.90;;;;;;4991958;28;20029;-44
2022/10/09 09:34:37;;;;;;;6.38;2.40;;;17.20;99.90;;;;;;4991711;28;20110;-47
2022/10/09 09:37:03;;;;;;;3.20;2.45;;;17.40;99.90;;;;;;4990635;28;20026;-41
2022/10/09 09:39:31;;;;;;;4.90;2.38;;;17.30;99.90;;;;;;4991744;28;20442;-45
2022/10/09 09:42:06;;;;;;;10.32;3.75;;;16.90;99.90;;;;;;4992163;28;20080;-43
2022/10/09 09:44:33;;;;;;;14.67;2.63;;;16.70;99.90;;;;;;4991659;28;20118;-45
2022/10/09 09:46:59;;;;;;;5.70;2.90;;;16.50;99.90;;;;;;4991776;28;20049;-46
2022/10/09 09:49:27;;;;;;;5.38;2.58;;;16.30;99.90;;;;;;4991561;28;20187;-46
2022/10/09 09:51:55;;;;;;;3.25;2.63;;;16.20;99.90;;;;;;4991678;28;20023;-44
2022/10/09 09:54:26;;;;;;;6.05;2.92;;;16.00;99.90;;;;;;4991345;28;20039;-49
2022/10/09 09:56:55;;;;;;;4.63;2.40;;;16.00;99.90;;;;;;4991555;28;20030;-46
2022/10/09 09:59:32;;;;;;;7.90;2.42;;;15.90;99.90;;;;;;4991562;28;20073;-47
2022/10/09 10:02:15;;;;;;;2.95;2.63;;;15.90;99.90;;;;;;4989933;28;20030;-43
2022/10/09 10:04:50;;;;;;;3.40;2.42;;;15.80;99.90;;;;;;4991701;28;20026;-46
2022/10/09 10:07:37;;;;;;;7.40;3.08;;;15.70;99.90;;;;;;4994833;28;20558;-44
2022/10/09 10:10:08;;;;;;;4.55;2.10;;;15.60;99.90;;;;;;4994541;28;20118;-46
2022/10/09 10:12:39;;;;;;;3.00;2.30;;;15.60;99.90;;;;;;4994756;28;20026;-45
2022/10/09 10:15:05;;;;;;;2.47;2.20;;;15.60;99.90;;;;;;4994819;28;20033;-48
2022/10/09 10:17:33;;;;;;;3.05;2.47;;;15.70;99.90;;;;;;4994663;28;20123;-46
2022/10/09 10:20:04;;;;;;;3.53;2.42;;;15.80;99.90;;;;;;4994926;28;20045;-42
2022/10/09 10:22:31;;;;;;;8.38;2.45;;;15.90;99.90;;;;;;4995170;28;20107;-45
2022/10/09 10:24:58;;;;;;;5.90;2.30;;;15.90;99.90;;;;;;4995121;28;20023;-48
2022/10/09 10:27:37;;;;;;;5.97;2.50;;;15.90;99.90;;;;;;4994707;28;20038;-45
2022/10/09 10:30:12;;;;;;;5.60;2.22;;;15.70;99.90;;;;;;4994291;28;20061;-43
2022/10/09 10:32:53;;;;;;;9.32;2.72;;;15.70;99.90;;;;;;4994311;28;20087;-44
2022/10/09 10:35:21;;;;;;;4.57;2.00;;;15.70;99.90;;;;;;4992980;28;20041;-41
2022/10/09 10:38:20;;;;;;;6.13;2.40;;;15.70;99.90;;;;;;4994393;28;20035;-43
2022/10/09 10:40:57;;;;;;;5.53;2.25;;;15.70;99.90;;;;;;4994256;28;20034;-43
2022/10/09 10:43:22;;;;;;;4.35;2.20;;;15.60;99.90;;;;;;4993905;28;20448;-46
2022/10/09 10:45:58;;;;;;;9.35;2.20;;;15.50;99.90;;;;;;4994163;28;20026;-43
2022/10/09 10:48:38;;;;;;;4.80;2.05;;;15.60;99.90;;;;;;4994168;28;20139;-43
2022/10/09 10:51:29;;;;;;;3.97;2.03;;;15.80;99.90;;;;;;4994219;28;20030;-41
2022/10/09 10:54:47;;;;;;;2.72;2.03;;;15.80;99.90;;;;;;4993937;28;20038;-41
2022/10/09 10:57:15;;;;;;;5.93;2.10;;;15.70;99.90;;;;;;4990009;28;20128;-43
2022/10/09 10:59:44;;;;;;;7.65;2.42;;;15.70;99.90;;;;;;4994517;28;20069;-45
2022/10/09 11:02:53;;;;;;;5.40;2.25;;;15.70;99.90;;;;;;4993881;28;20026;-44
2022/10/09 11:05:36;;;;;;;4.05;1.92;;;15.60;99.90;;;;;;4993943;28;20105;-44
2022/10/09 11:08:09;;;;;;;6.28;2.15;;;15.50;99.90;;;;;;4993916;28;20089;-45
2022/10/09 11:11:07;;;;;;;4.20;1.83;;;15.60;99.90;;;;;;4993796;28;20026;-40
2022/10/09 11:14:03;;;;;;;3.28;1.80;;;15.60;99.90;;;;;;4993877;28;20026;-45
2022/10/09 11:16:37;;;;;;;2.35;1.73;;;15.60;99.90;;;;;;4993877;28;20521;-42
2022/10/09 11:19:40;;;;;;;3.35;1.80;;;15.60;99.90;;;;;;4993098;28;20026;-45
2022/10/09 11:22:34;;;;;;;3.22;2.20;;;15.70;99.90;;;;;;4993496;28;20451;-45
2022/10/09 11:25:14;;;;;;;4.55;2.00;;;15.80;99.90;;;;;;4994067;28;20026;-43
2022/10/09 11:27:56;;;;;;;24.08;14.50;;;15.80;99.90;;;;;;4994826;28;20506;-46
2022/10/09 11:30:21;;;;;;;8.75;4.90;;;15.80;99.80;;;;;;4993517;28;20081;-40
2022/10/09 11:32:59;;;;;;;2.58;1.80;;;15.70;99.50;;;;;;4993655;28;20441;-43
2022/10/09 11:35:44;;;;;;;4.50;1.92;;;15.70;99.90;;;;;;4994244;28;20494;-41
2022/10/09 11:38:28;;;;;;;5.55;2.45;;;15.70;99.70;;;;;;4993340;28;20121;-43
2022/10/09 11:40:55;;;;;;;3.72;2.17;;;15.80;99.90;;;;;;4993337;28;20035;-44
2022/10/09 11:43:41;;;;;;;5.88;1.60;;;15.80;99.90;;;;;;4993000;28;20089;-44
2022/10/09 11:46:14;;;;;;;;;;;15.90;99.90;;;;;;4993236;28;20502;-43
2022/10/09 11:49:03;;;;;;;3.80;1.70;;;15.90;99.00;;;;;;4993021;28;19910;-47
2022/10/09 11:51:56;;;;;;;8.82;1.73;;;15.80;99.70;;;;;;4993093;28;20022;-42
2022/10/09 11:54:24;;;;;;;4.78;1.92;;;15.90;99.70;;;;;;4992846;28;20042;-45
2022/10/09 11:56:56;;;;;;;2.92;1.73;;;15.90;99.20;;;;;;4992301;28;20073;-43
2022/10/09 11:59:36;;;;;;;3.10;1.58;;;15.90;99.00;;;;;;4994121;28;20022;-42
2022/10/09 12:02:25;;;;;;;2.70;1.35;;;15.90;98.60;;;;;;4994550;28;20019;-40
2022/10/09 12:04:52;;;;;;;2.22;1.73;;;15.90;98.40;;;;;;4994017;28;20030;-46
2022/10/09 12:07:30;;;;;;;6.82;2.55;;;15.80;97.90;;;;;;4993750;28;20026;-41
2022/10/09 12:10:04;;;;;;;1.40;1.30;;;15.80;97.90;;;;;;4993262;28;20034;-42
2022/10/09 12:12:30;;;;;;;2.53;1.30;;;15.80;97.90;;;;;;4992208;28;20041;-42
2022/10/09 12:14:57;;;;;;;3.75;1.60;;;15.80;98.20;;;;;;4992692;28;20037;-44
2022/10/09 12:17:22;;;;;;;1.83;1.73;;;15.90;97.70;;;;;;4991330;28;20113;-42
2022/10/09 12:19:54;;;;;;;2.72;1.17;;;16.00;97.70;;;;;;4992279;28;20130;-41
2022/10/09 12:22:31;;;;;;;1.85;1.38;;;15.90;97.30;;;;;;4992069;28;20030;-45
2022/10/09 12:25:02;;;;;;;1.98;1.30;;;15.90;97.60;;;;;;4993346;28;20437;-43
2022/10/09 12:27:36;;;;;;;1.42;1.33;;;15.80;98.00;;;;;;4992689;28;20094;-44
2022/10/09 12:30:11;;;;;;;2.97;1.33;;;15.90;97.40;;;;;;4991448;28;20031;-46
2022/10/09 12:32:52;;;;;;;3.45;1.92;;;15.90;97.50;;;;;;4991607;28;20034;-43
2022/10/09 12:35:25;;;;;;;6.93;1.80;;;15.90;97.30;;;;;;4992698;28;20034;-43
2022/10/09 12:37:50;;;;;;;2.22;1.55;;;15.90;96.90;;;;;;4992254;28;20033;-46
2022/10/09 12:40:28;;;;;;;1.90;1.20;;;15.90;96.40;;;;;;4991956;28;20027;-45
2022/10/09 12:42:55;;;;;;;2.78;1.35;;;15.90;96.50;;;;;;4991746;28;20550;-46
2022/10/09 12:45:24;;;;;;;5.00;1.70;;;16.00;96.40;;;;;;4993233;28;20109;-43
2022/10/09 12:47:51;;;;;;;1.55;1.05;;;16.00;97.10;;;;;;4993036;28;20038;-43
2022/10/09 12:50:29;;;;;;;12.48;2.35;;;16.10;97.00;;;;;;4991835;28;20036;-45
2022/10/09 12:52:58;;;;;;;1.67;1.30;;;16.20;96.90;;;;;;4991614;28;20026;-45
2022/10/09 12:55:35;;;;;;;2.70;1.48;;;16.10;95.90;;;;;;4992415;28;20022;-45
2022/10/09 12:58:15;;;;;;;4.93;1.60;;;16.00;96.20;;;;;;4991675;28;20030;-48
2022/10/09 13:00:41;;;;;;;1.80;1.02;;;16.00;96.00;;;;;;4992135;28;20110;-41
2022/10/09 13:03:22;;;;;;;2.25;1.20;;;16.00;96.50;;;;;;4991692;28;20483;-43
2022/10/09 13:05:48;;;;;;;5.85;1.67;;;16.10;96.10;;;;;;4991867;28;20026;-46
2022/10/09 13:08:33;;;;;;;3.85;1.42;;;16.10;95.90;;;;;;4991635;28;20089;-46